Time;durP1;ratioP1;P1;durP2;ratioP2;P2;SDS_P1;SDS_P2;PMS_P1;PMS_P2;Temp;Humidity;BMP_temperature;BMP_pressure;BME280_temperature;BME280_humidity;BME280_pressure;Samples;Min_cycle;Max_cycle;Signal;HPM_P1;HPM_P2
2021/06/30 00:00:01;;;;;;;0.30;0.30;;;16.40;83.70;;;;;;5041799;28;20068;-84
2021/06/30 00:02:27;;;;;;;0.20;0.20;;;16.50;83.70;;;;;;5057798;28;20044;-84
2021/06/30 00:04:53;;;;;;;0.25;0.20;;;16.40;83.70;;;;;;5075208;28;20044;-84
2021/06/30 00:07:20;;;;;;;1.23;0.40;;;16.40;83.70;;;;;;5040015;28;20033;-83
2021/06/30 00:09:46;;;;;;;0.20;0.20;;;16.40;83.80;;;;;;5056947;28;20040;-83
2021/06/30 00:21:56;;;;;;;0.30;0.30;;;16.40;84.10;;;;;;5071516;28;20509;-84
2021/06/30 00:24:21;;;;;;;0.30;0.30;;;16.30;84.10;;;;;;5073631;28;20115;-84
2021/06/30 00:26:47;;;;;;;0.10;0.10;;;16.40;84.40;;;;;;5022512;28;20123;-83
2021/06/30 00:29:13;;;;;;;0.20;0.20;;;16.30;84.10;;;;;;5039121;28;20570;-83
2021/06/30 00:31:38;;;;;;;0.30;0.30;;;16.30;84.10;;;;;;5055368;28;20470;-82
2021/06/30 00:34:05;;;;;;;0.40;0.28;;;16.30;84.10;;;;;;5022556;28;20072;-82
2021/06/30 00:36:34;;;;;;;0.30;0.30;;;16.30;84.20;;;;;;5054112;28;20036;-82
2021/06/30 00:39:02;;;;;;;0.40;0.30;;;16.30;84.30;;;;;;5055466;28;20052;-82
2021/06/30 00:41:28;;;;;;;0.40;0.40;;;16.20;84.30;;;;;;5039128;28;20048;-82
2021/06/30 00:43:54;;;;;;;0.22;0.22;;;16.20;84.40;;;;;;5055564;28;20078;-82
2021/06/30 00:46:28;;;;;;;0.30;0.30;;;16.20;84.60;;;;;;5038472;28;20040;-82
2021/06/30 00:48:55;;;;;;;0.20;0.20;;;16.10;84.60;;;;;;5038742;28;20508;-82
2021/06/30 00:51:21;;;;;;;0.30;0.30;;;16.10;84.60;;;;;;5055311;28;20045;-82
2021/06/30 00:53:47;;;;;;;0.25;0.25;;;16.10;84.60;;;;;;5022272;28;20064;-82
2021/06/30 00:56:14;;;;;;;0.30;0.30;;;16.10;84.60;;;;;;5038474;28;20494;-82
2021/06/30 00:58:40;;;;;;;0.30;0.30;;;16.00;84.60;;;;;;5055103;28;20037;-83
2021/06/30 01:01:06;;;;;;;0.20;0.20;;;16.10;84.70;;;;;;5037814;28;20162;-82
2021/06/30 01:03:32;;;;;;;0.40;0.40;;;16.10;84.80;;;;;;5038615;28;20088;-82
2021/06/30 01:05:58;;;;;;;0.85;0.40;;;16.00;84.70;;;;;;5073081;28;20420;-83
2021/06/30 01:08:23;;;;;;;0.30;0.30;;;16.00;84.70;;;;;;5038868;28;20039;-82
2021/06/30 01:10:49;;;;;;;0.30;0.30;;;16.00;84.90;;;;;;5073246;28;20037;-82
2021/06/30 01:13:15;;;;;;;0.38;0.20;;;16.00;84.90;;;;;;5038534;28;20115;-82
2021/06/30 01:15:55;;;;;;;0.30;0.30;;;16.00;84.90;;;;;;5022639;28;20047;-82
2021/06/30 01:18:22;;;;;;;0.30;0.30;;;15.90;85.00;;;;;;5056129;28;20044;-83
2021/06/30 01:20:48;;;;;;;0.45;0.30;;;15.90;85.00;;;;;;5055813;28;20043;-83
2021/06/30 01:23:14;;;;;;;0.43;0.35;;;15.90;85.00;;;;;;5054798;28;20042;-83
2021/06/30 01:25:40;;;;;;;0.30;0.30;;;15.90;85.00;;;;;;5054906;28;20119;-83
2021/06/30 01:28:06;;;;;;;0.20;0.20;;;15.90;85.00;;;;;;5038286;28;20040;-82
2021/06/30 01:30:32;;;;;;;0.30;0.30;;;16.00;85.10;;;;;;5038481;28;20398;-83
2021/06/30 01:32:58;;;;;;;0.20;0.20;;;15.90;85.00;;;;;;5055139;28;20044;-82
2021/06/30 01:35:25;;;;;;;0.28;0.28;;;15.90;85.00;;;;;;5038221;28;20558;-83
2021/06/30 01:37:51;;;;;;;0.32;0.32;;;15.90;85.00;;;;;;5072505;28;20071;-83
2021/06/30 01:40:18;;;;;;;0.40;0.32;;;15.90;85.00;;;;;;5038541;28;20040;-82
2021/06/30 01:42:45;;;;;;;0.20;0.20;;;16.00;85.10;;;;;;5054845;28;20037;-82
2021/06/30 01:45:11;;;;;;;0.35;0.35;;;16.00;85.10;;;;;;5055184;28;20041;-83
2021/06/30 01:47:38;;;;;;;0.32;0.32;;;15.90;85.00;;;;;;5054927;28;20052;-82
2021/06/30 01:50:05;;;;;;;0.25;0.25;;;15.90;85.00;;;;;;5037959;28;20102;-83
2021/06/30 01:52:31;;;;;;;0.30;0.30;;;15.90;84.90;;;;;;5054198;28;20044;-83
2021/06/30 01:54:57;;;;;;;0.30;0.30;;;15.90;85.10;;;;;;5037574;28;20491;-82
2021/06/30 01:57:23;;;;;;;0.15;0.15;;;15.90;85.20;;;;;;5072236;28;20047;-83
2021/06/30 01:59:49;;;;;;;0.30;0.30;;;15.80;85.20;;;;;;5072050;28;20044;-82
2021/06/30 02:02:15;;;;;;;0.20;0.20;;;15.80;85.30;;;;;;5054275;28;20044;-82
2021/06/30 02:04:41;;;;;;;0.30;0.30;;;15.80;85.40;;;;;;5072206;28;20131;-82
2021/06/30 02:07:08;;;;;;;0.30;0.30;;;15.80;85.30;;;;;;5070900;28;20048;-82
2021/06/30 02:09:34;;;;;;;0.30;0.30;;;15.80;85.40;;;;;;5054023;28;20045;-82
2021/06/30 02:12:00;;;;;;;0.30;0.30;;;15.80;85.50;;;;;;5054747;28;20116;-83
2021/06/30 02:14:26;;;;;;;0.30;0.30;;;15.70;85.50;;;;;;5054012;28;20040;-82
2021/06/30 02:16:52;;;;;;;0.30;0.30;;;15.80;85.50;;;;;;5054401;28;20136;-82
2021/06/30 02:19:18;;;;;;;0.30;0.30;;;15.70;85.50;;;;;;5072298;28;20539;-82
2021/06/30 02:21:44;;;;;;;0.52;0.40;;;15.80;85.50;;;;;;5021095;28;20040;-82
2021/06/30 02:24:10;;;;;;;0.43;0.32;;;15.70;85.40;;;;;;5052249;28;20047;-82
2021/06/30 02:26:36;;;;;;;0.20;0.20;;;15.70;85.50;;;;;;5020985;28;20399;-82
2021/06/30 02:29:03;;;;;;;0.17;0.17;;;15.70;85.50;;;;;;5072389;28;20044;-81
2021/06/30 02:31:29;;;;;;;0.20;0.20;;;15.70;85.50;;;;;;5037437;28;20043;-82
2021/06/30 02:33:54;;;;;;;0.17;0.17;;;15.70;85.60;;;;;;5053951;28;20048;-82
2021/06/30 02:36:21;;;;;;;0.30;0.30;;;15.70;85.80;;;;;;5037042;28;20562;-81
2021/06/30 02:38:48;;;;;;;0.30;0.30;;;15.70;85.70;;;;;;5037294;28;20028;-80
2021/06/30 02:41:14;;;;;;;0.30;0.30;;;15.80;85.70;;;;;;5053715;28;20032;-80
2021/06/30 02:43:41;;;;;;;0.20;0.20;;;15.70;85.60;;;;;;5037199;28;20507;-81
2021/06/30 02:46:08;;;;;;;0.20;0.20;;;15.70;85.70;;;;;;5037125;28;20033;-81
2021/06/30 02:48:34;;;;;;;0.40;0.40;;;15.70;85.80;;;;;;5037177;28;20040;-80
2021/06/30 02:50:59;;;;;;;0.20;0.20;;;15.60;85.80;;;;;;5053890;28;20041;-80
2021/06/30 02:53:25;;;;;;;0.30;0.30;;;15.60;85.80;;;;;;5054383;28;20090;-80
2021/06/30 02:55:51;;;;;;;0.22;0.22;;;15.50;85.80;;;;;;5054139;28;20132;-80
2021/06/30 02:58:16;;;;;;;0.32;0.32;;;15.60;86.00;;;;;;5071577;28;20044;-80
2021/06/30 03:00:42;;;;;;;0.30;0.30;;;15.60;86.00;;;;;;5036962;28;20397;-80
2021/06/30 03:03:08;;;;;;;0.28;0.28;;;15.60;86.00;;;;;;5053521;28;20037;-80
2021/06/30 03:05:35;;;;;;;0.35;0.35;;;15.50;85.90;;;;;;5053225;28;20037;-79
2021/06/30 03:08:00;;;;;;;0.20;0.20;;;15.50;85.90;;;;;;5051361;28;20146;-80
2021/06/30 03:10:26;;;;;;;0.40;0.38;;;15.50;86.10;;;;;;5020178;28;20052;-80
2021/06/30 03:12:52;;;;;;;0.30;0.20;;;15.50;86.20;;;;;;5035003;28;20040;-80
2021/06/30 03:15:18;;;;;;;0.30;0.30;;;15.50;86.10;;;;;;5053307;28;20395;-80
2021/06/30 03:17:44;;;;;;;0.20;0.20;;;15.50;86.10;;;;;;5053670;28;20406;-80
2021/06/30 03:20:13;;;;;;;0.20;0.20;;;15.50;86.10;;;;;;5053654;28;20479;-80
2021/06/30 03:22:40;;;;;;;0.20;0.20;;;15.40;86.00;;;;;;5053134;28;20093;-80
2021/06/30 03:25:08;;;;;;;0.20;0.20;;;15.40;86.10;;;;;;5055011;28;20437;-80
2021/06/30 03:27:34;;;;;;;0.32;0.32;;;15.40;86.20;;;;;;5072607;28;20044;-79
2021/06/30 03:29:59;;;;;;;0.20;0.20;;;15.40;86.20;;;;;;5056257;28;20448;-79
2021/06/30 03:32:25;;;;;;;0.30;0.30;;;15.50;86.30;;;;;;5056443;28;20048;-79
2021/06/30 03:34:51;;;;;;;0.30;0.30;;;15.50;86.30;;;;;;5039708;28;20048;-79
2021/06/30 03:37:16;;;;;;;0.30;0.30;;;15.50;86.20;;;;;;5056158;28;20045;-79
2021/06/30 03:39:42;;;;;;;0.40;0.40;;;15.50;86.20;;;;;;5074363;28;20097;-79
2021/06/30 03:42:08;;;;;;;0.32;0.32;;;15.50;86.30;;;;;;5074413;28;20033;-79
2021/06/30 03:44:33;;;;;;;0.40;0.40;;;15.50;86.30;;;;;;5056203;28;20142;-79
2021/06/30 03:46:59;;;;;;;0.40;0.40;;;15.40;86.30;;;;;;5056636;28;20501;-79
2021/06/30 03:49:25;;;;;;;0.30;0.30;;;15.40;86.30;;;;;;5023065;28;20063;-79
2021/06/30 03:51:50;;;;;;;0.45;0.45;;;15.40;86.30;;;;;;5074172;28;20040;-79
2021/06/30 03:54:16;;;;;;;0.43;0.32;;;15.40;86.40;;;;;;5074222;28;20135;-81
2021/06/30 03:56:42;;;;;;;0.32;0.32;;;15.40;86.30;;;;;;5056049;28;20048;-78
2021/06/30 03:59:07;;;;;;;0.38;0.38;;;15.40;86.50;;;;;;5040264;28;20040;-79
2021/06/30 04:01:33;;;;;;;0.17;0.17;;;15.40;86.40;;;;;;5056662;28;20036;-78
2021/06/30 04:04:01;;;;;;;0.35;0.35;;;15.40;86.50;;;;;;5039709;28;20123;-79
2021/06/30 04:06:27;;;;;;;0.35;0.35;;;15.40;86.50;;;;;;5056103;28;20371;-79
2021/06/30 04:08:53;;;;;;;0.30;0.30;;;15.40;86.50;;;;;;5056120;28;20098;-78
2021/06/30 04:11:18;;;;;;;0.50;0.45;;;15.40;86.50;;;;;;5074521;28;20071;-79
2021/06/30 04:13:45;;;;;;;0.30;0.30;;;15.40;86.60;;;;;;5056004;28;20132;-79
2021/06/30 04:16:12;;;;;;;0.30;0.30;;;15.40;86.50;;;;;;5039695;28;20448;-80
2021/06/30 04:18:38;;;;;;;0.30;0.30;;;15.40;86.50;;;;;;5055993;28;20064;-79
2021/06/30 04:21:05;;;;;;;0.30;0.30;;;15.40;86.50;;;;;;5056208;28;20098;-79
2021/06/30 04:23:30;;;;;;;0.20;0.20;;;15.40;86.60;;;;;;5056228;28;20041;-79
2021/06/30 04:25:56;;;;;;;0.30;0.30;;;15.40;86.60;;;;;;5073936;28;20086;-79
2021/06/30 04:28:22;;;;;;;0.20;0.20;;;15.40;86.60;;;;;;5073998;28;20549;-79
2021/06/30 04:30:49;;;;;;;0.30;0.30;;;15.30;86.50;;;;;;5055852;28;20394;-79
2021/06/30 04:33:14;;;;;;;0.20;0.20;;;15.40;86.50;;;;;;5055604;28;20036;-78
2021/06/30 04:35:40;;;;;;;0.38;0.30;;;15.40;86.50;;;;;;5055020;28;20135;-79
2021/06/30 04:38:06;;;;;;;0.30;0.30;;;15.40;86.50;;;;;;5038487;28;20182;-78
2021/06/30 04:40:32;;;;;;;0.60;0.60;;;15.40;86.50;;;;;;5038880;28;20033;-79
2021/06/30 04:42:57;;;;;;;0.30;0.30;;;15.50;86.70;;;;;;5055507;28;20494;-79
2021/06/30 04:45:23;;;;;;;0.40;0.40;;;15.30;86.70;;;;;;5056049;28;20504;-79
2021/06/30 04:47:49;;;;;;;1.10;0.40;;;15.30;86.70;;;;;;5022311;28;20159;-80
2021/06/30 04:50:15;;;;;;;0.20;0.20;;;15.30;86.70;;;;;;5055352;28;20119;-78
2021/06/30 04:52:41;;;;;;;0.40;0.40;;;15.30;86.70;;;;;;5055834;28;20040;-79
2021/06/30 04:55:08;;;;;;;0.40;0.40;;;15.30;86.70;;;;;;5073575;28;20141;-78
2021/06/30 04:57:36;;;;;;;0.30;0.30;;;15.30;86.70;;;;;;5073331;28;20045;-79
2021/06/30 05:00:04;;;;;;;0.77;0.55;;;15.30;86.80;;;;;;5055526;28;20036;-79
2021/06/30 05:02:29;;;;;;;0.40;0.40;;;15.30;86.80;;;;;;5036955;28;20508;-79
2021/06/30 05:04:55;;;;;;;0.30;0.30;;;15.20;86.80;;;;;;5055199;28;20127;-78
2021/06/30 05:07:21;;;;;;;0.43;0.43;;;15.30;86.90;;;;;;5038503;28;20040;-78
2021/06/30 05:09:47;;;;;;;0.95;0.50;;;15.30;86.80;;;;;;5073061;28;20040;-79
2021/06/30 05:12:13;;;;;;;0.30;0.30;;;15.30;86.80;;;;;;5055814;28;20459;-80
2021/06/30 05:14:39;;;;;;;0.45;0.45;;;15.20;86.80;;;;;;5055758;28;20076;-80
2021/06/30 05:17:05;;;;;;;0.45;0.45;;;15.30;86.90;;;;;;5073439;28;20072;-79
2021/06/30 05:19:31;;;;;;;0.50;0.50;;;15.20;86.80;;;;;;5073044;28;20040;-79
2021/06/30 05:21:57;;;;;;;0.50;0.50;;;15.20;86.90;;;;;;5073424;28;20033;-79
2021/06/30 05:24:23;;;;;;;0.50;0.50;;;15.20;86.90;;;;;;5073065;28;20067;-79
2021/06/30 05:26:50;;;;;;;0.65;0.38;;;15.20;86.90;;;;;;5055126;28;20043;-78
2021/06/30 05:29:16;;;;;;;0.40;0.40;;;15.20;87.00;;;;;;5021981;28;20383;-78
2021/06/30 05:31:42;;;;;;;0.40;0.40;;;15.20;87.00;;;;;;5073211;28;20407;-79
2021/06/30 05:34:08;;;;;;;0.57;0.50;;;15.30;87.30;;;;;;5038268;28;20041;-78
2021/06/30 05:36:34;;;;;;;0.65;0.60;;;15.30;86.90;;;;;;5054748;28;20056;-78
2021/06/30 05:39:00;;;;;;;0.52;0.52;;;15.30;86.90;;;;;;5038233;28;20036;-78
2021/06/30 05:41:25;;;;;;;0.43;0.43;;;15.30;86.90;;;;;;5037999;28;20398;-78
2021/06/30 05:43:51;;;;;;;0.85;0.65;;;15.30;87.00;;;;;;5072663;28;20041;-78
2021/06/30 05:46:18;;;;;;;0.50;0.50;;;15.30;87.00;;;;;;5054408;28;20040;-79
2021/06/30 05:48:45;;;;;;;0.60;0.60;;;15.30;87.00;;;;;;5054282;28;20052;-77
2021/06/30 05:51:11;;;;;;;1.60;0.40;;;15.30;87.00;;;;;;5054837;28;20098;-79
2021/06/30 05:53:38;;;;;;;0.52;0.52;;;15.20;87.00;;;;;;5021696;28;20044;-78
2021/06/30 05:56:04;;;;;;;0.40;0.40;;;15.30;87.70;;;;;;5038229;28;20081;-78
2021/06/30 05:58:30;;;;;;;0.50;0.50;;;15.20;87.00;;;;;;5038251;28;20044;-78
2021/06/30 06:00:56;;;;;;;0.40;0.40;;;15.20;87.00;;;;;;5037835;28;20389;-77
2021/06/30 06:03:22;;;;;;;0.50;0.50;;;15.20;87.10;;;;;;5073053;28;20095;-78
2021/06/30 06:05:48;;;;;;;0.90;0.57;;;15.30;87.10;;;;;;5037765;28;20036;-78
2021/06/30 06:08:13;;;;;;;0.40;0.40;;;15.30;87.00;;;;;;5037477;28;20127;-78
2021/06/30 06:10:39;;;;;;;0.75;0.73;;;15.30;87.00;;;;;;5072179;28;20495;-79
2021/06/30 06:13:05;;;;;;;0.40;0.40;;;15.30;87.00;;;;;;5037530;28;20050;-77
2021/06/30 06:15:30;;;;;;;0.45;0.45;;;15.40;87.10;;;;;;5053725;28;20068;-78
2021/06/30 06:17:56;;;;;;;0.60;0.60;;;15.30;87.00;;;;;;5071801;28;20040;-77
2021/06/30 06:20:22;;;;;;;0.40;0.40;;;15.30;87.00;;;;;;5054017;28;20040;-77
2021/06/30 06:22:48;;;;;;;0.52;0.52;;;15.20;87.00;;;;;;5037373;28;20037;-78
2021/06/30 06:25:14;;;;;;;0.50;0.50;;;15.20;87.00;;;;;;5072094;28;20036;-77
2021/06/30 06:27:39;;;;;;;1.00;0.63;;;15.20;87.10;;;;;;5054108;28;20486;-77
2021/06/30 06:30:08;;;;;;;0.50;0.50;;;15.20;87.10;;;;;;5071936;28;20045;-78
2021/06/30 06:32:34;;;;;;;0.40;0.40;;;15.20;87.10;;;;;;5051839;28;20117;-78
2021/06/30 06:35:00;;;;;;;0.70;0.60;;;15.30;87.10;;;;;;5053955;28;20033;-77
2021/06/30 06:37:26;;;;;;;0.38;0.38;;;15.30;87.10;;;;;;5053845;28;20474;-77
2021/06/30 06:39:52;;;;;;;0.50;0.50;;;15.30;87.10;;;;;;5068787;28;20137;-77
2021/06/30 06:42:18;;;;;;;0.60;0.55;;;15.40;87.00;;;;;;5037119;28;20127;-77
2021/06/30 06:44:45;;;;;;;0.57;0.57;;;15.50;86.90;;;;;;5071667;28;20036;-78
2021/06/30 06:47:11;;;;;;;0.40;0.40;;;15.40;86.80;;;;;;5035218;28;20105;-80
2021/06/30 06:49:37;;;;;;;0.50;0.40;;;15.40;86.80;;;;;;5054328;28;20048;-79
2021/06/30 06:52:03;;;;;;;0.50;0.50;;;15.50;86.90;;;;;;5053643;28;20056;-79
2021/06/30 06:54:28;;;;;;;0.40;0.40;;;15.40;86.80;;;;;;5037087;28;20052;-81
2021/06/30 06:56:54;;;;;;;0.30;0.30;;;15.40;86.80;;;;;;5020567;28;20190;-80
2021/06/30 06:59:20;;;;;;;0.30;0.30;;;15.50;86.90;;;;;;5037818;28;20482;-79
2021/06/30 07:01:45;;;;;;;0.43;0.43;;;15.50;86.90;;;;;;5057308;28;20044;-79
2021/06/30 07:04:11;;;;;;;0.60;0.50;;;15.50;86.80;;;;;;5057338;28;20110;-80
2021/06/30 07:06:37;;;;;;;0.32;0.32;;;15.50;86.90;;;;;;5040519;28;20041;-79
2021/06/30 07:09:03;;;;;;;0.30;0.30;;;15.50;86.90;;;;;;5057077;28;20094;-80
2021/06/30 07:11:29;;;;;;;0.43;0.43;;;15.60;86.90;;;;;;5040491;28;20036;-80
2021/06/30 07:13:55;;;;;;;0.45;0.45;;;15.60;86.90;;;;;;5038591;28;20040;-80
2021/06/30 07:16:20;;;;;;;0.40;0.40;;;15.60;86.80;;;;;;5057501;28;20363;-81
2021/06/30 07:18:46;;;;;;;0.40;0.40;;;15.60;86.80;;;;;;5023722;28;20068;-82
2021/06/30 07:21:12;;;;;;;0.77;0.38;;;15.70;87.00;;;;;;5057503;28;20536;-79
2021/06/30 07:23:38;;;;;;;0.88;0.55;;;15.70;86.80;;;;;;5056972;28;20047;-79
2021/06/30 07:26:05;;;;;;;0.47;0.47;;;15.70;86.70;;;;;;5040449;28;20036;-78
2021/06/30 07:28:31;;;;;;;0.60;0.55;;;15.80;86.70;;;;;;5057321;28;20041;-79
2021/06/30 07:30:56;;;;;;;0.40;0.40;;;15.80;86.50;;;;;;5074795;28;20041;-79
2021/06/30 07:33:22;;;;;;;0.50;0.40;;;15.90;86.60;;;;;;5056811;28;20093;-80
2021/06/30 07:35:48;;;;;;;0.22;0.22;;;15.90;86.50;;;;;;5056585;28;20589;-80
2021/06/30 07:38:14;;;;;;;0.88;0.60;;;15.90;86.50;;;;;;5023376;28;20057;-80
2021/06/30 07:40:40;;;;;;;0.52;0.52;;;15.90;86.50;;;;;;5039629;28;20052;-80
2021/06/30 07:43:06;;;;;;;0.40;0.40;;;15.90;86.50;;;;;;5039832;28;20037;-80
2021/06/30 07:45:32;;;;;;;1.33;0.50;;;15.90;86.40;;;;;;5023313;28;20040;-79
2021/06/30 07:47:58;;;;;;;0.30;0.30;;;15.90;86.60;;;;;;5056542;28;20044;-80
2021/06/30 07:50:24;;;;;;;0.38;0.38;;;15.90;86.60;;;;;;5023554;28;20143;-81
2021/06/30 07:52:50;;;;;;;0.38;0.38;;;16.00;86.70;;;;;;5057213;28;20063;-81
2021/06/30 07:55:16;;;;;;;0.45;0.45;;;16.00;86.70;;;;;;5064236;28;20066;-79
2021/06/30 07:57:42;;;;;;;0.40;0.40;;;15.90;86.60;;;;;;5081971;28;20053;-80
2021/06/30 08:00:09;;;;;;;0.43;0.43;;;16.00;86.70;;;;;;5070003;28;20045;-79
2021/06/30 08:02:36;;;;;;;0.77;0.45;;;16.00;86.60;;;;;;5078222;28;20064;-79
2021/06/30 08:05:04;;;;;;;0.32;0.32;;;16.10;86.60;;;;;;5056590;28;20090;-83
2021/06/30 08:07:29;;;;;;;0.30;0.30;;;16.10;86.60;;;;;;5039617;28;20174;-82
2021/06/30 08:09:55;;;;;;;0.43;0.40;;;16.20;86.60;;;;;;5056685;28;20090;-84
2021/06/30 08:12:20;;;;;;;0.45;0.45;;;16.20;86.40;;;;;;5059939;28;20036;-80
2021/06/30 08:14:46;;;;;;;0.20;0.20;;;16.20;86.40;;;;;;5057375;28;20063;-78
2021/06/30 08:17:12;;;;;;;0.50;0.50;;;16.30;86.40;;;;;;5073732;28;20053;-79
2021/06/30 08:19:37;;;;;;;0.45;0.45;;;16.30;86.20;;;;;;5022764;28;20106;-78
2021/06/30 08:22:04;;;;;;;0.30;0.30;;;16.40;86.20;;;;;;5055881;28;20043;-78
2021/06/30 08:24:29;;;;;;;0.35;0.30;;;16.40;86.20;;;;;;5074390;28;20036;-80
2021/06/30 08:26:56;;;;;;;0.60;0.60;;;16.40;86.90;;;;;;5056031;28;20127;-80
2021/06/30 08:29:23;;;;;;;0.52;0.50;;;16.40;86.20;;;;;;5039399;28;20037;-79
2021/06/30 08:31:49;;;;;;;0.50;0.50;;;16.40;86.30;;;;;;5056210;28;20041;-79
2021/06/30 08:34:15;;;;;;;0.50;0.50;;;16.30;86.50;;;;;;5022773;28;20459;-80
2021/06/30 08:36:41;;;;;;;0.38;0.38;;;16.50;86.50;;;;;;5050993;28;20045;-80
2021/06/30 08:39:08;;;;;;;0.30;0.30;;;16.40;86.50;;;;;;5055785;28;20029;-79
2021/06/30 08:41:34;;;;;;;0.50;0.50;;;16.40;86.60;;;;;;5056096;28;20036;-80
2021/06/30 08:44:00;;;;;;;0.50;0.50;;;16.40;86.50;;;;;;5074314;28;20032;-81
2021/06/30 08:46:26;;;;;;;0.45;0.45;;;16.40;86.40;;;;;;5039154;28;20036;-83
2021/06/30 08:48:54;;;;;;;0.50;0.50;;;16.30;86.40;;;;;;5022810;28;20045;-82
2021/06/30 08:51:22;;;;;;;0.40;0.40;;;16.30;86.50;;;;;;5022701;28;20074;-80
2021/06/30 08:53:49;;;;;;;0.50;0.50;;;16.20;86.50;;;;;;5056382;28;20040;-80
2021/06/30 08:56:18;;;;;;;0.65;0.65;;;16.30;86.70;;;;;;5038372;28;20086;-82
2021/06/30 08:58:44;;;;;;;0.50;0.50;;;16.20;86.90;;;;;;5074272;28;20107;-79
2021/06/30 09:01:10;;;;;;;0.90;0.60;;;16.20;87.00;;;;;;5073679;28;20483;-80
2021/06/30 09:03:44;;;;;;;0.60;0.52;;;16.20;87.00;;;;;;5038765;28;20140;-81
2021/06/30 09:06:13;;;;;;;0.60;0.60;;;16.30;87.10;;;;;;5055659;28;20557;-80
2021/06/30 09:08:57;;;;;;;0.70;0.70;;;16.20;86.90;;;;;;5025711;28;20073;-81
2021/06/30 09:11:26;;;;;;;0.60;0.60;;;16.20;86.90;;;;;;5045870;28;20034;-80
2021/06/30 09:14:12;;;;;;;0.57;0.57;;;16.20;86.70;;;;;;5075562;28;20033;-79
2021/06/30 09:17:14;;;;;;;0.50;0.50;;;16.30;86.70;;;;;;5039371;28;20049;-78
2021/06/30 09:19:51;;;;;;;0.47;0.47;;;16.40;86.60;;;;;;5055055;28;20033;-79
2021/06/30 09:22:18;;;;;;;0.50;0.50;;;16.40;86.50;;;;;;5054910;28;20067;-79
2021/06/30 09:24:44;;;;;;;0.85;0.47;;;16.40;86.20;;;;;;5055739;28;20043;-79
2021/06/30 09:27:13;;;;;;;0.60;0.60;;;16.30;86.40;;;;;;5037012;28;20052;-79
2021/06/30 09:29:41;;;;;;;0.75;0.60;;;16.30;86.70;;;;;;5052922;28;20044;-78
2021/06/30 09:32:10;;;;;;;0.57;0.57;;;16.30;86.80;;;;;;5039426;28;20060;-78
2021/06/30 09:34:36;;;;;;;0.50;0.50;;;16.30;86.70;;;;;;5039909;28;20036;-78
2021/06/30 09:37:06;;;;;;;0.60;0.60;;;16.40;86.70;;;;;;5022096;28;20496;-79
2021/06/30 09:39:36;;;;;;;0.63;0.60;;;16.40;86.60;;;;;;5075150;28;20120;-80
2021/06/30 09:42:12;;;;;;;0.40;0.40;;;16.50;86.50;;;;;;5060296;28;20036;-79
2021/06/30 09:44:40;;;;;;;0.47;0.47;;;16.50;86.50;;;;;;5075999;28;20045;-81
2021/06/30 09:47:07;;;;;;;0.60;0.60;;;16.70;86.40;;;;;;5038371;28;20052;-83
2021/06/30 09:49:36;;;;;;;0.60;0.55;;;16.60;86.30;;;;;;5054544;28;20055;-81
2021/06/30 09:52:12;;;;;;;0.80;0.75;;;16.70;86.30;;;;;;5040397;28;20094;-79
2021/06/30 09:54:41;;;;;;;0.57;0.50;;;16.60;86.00;;;;;;5040605;28;20541;-78
2021/06/30 09:57:10;;;;;;;0.60;0.57;;;16.60;86.10;;;;;;5057455;28;20049;-78
2021/06/30 09:59:38;;;;;;;0.50;0.50;;;16.60;86.20;;;;;;5059072;28;20041;-78
2021/06/30 10:02:08;;;;;;;0.43;0.43;;;16.50;86.30;;;;;;5038255;28;20052;-78
2021/06/30 10:04:37;;;;;;;0.70;0.70;;;16.50;86.30;;;;;;5054660;28;20048;-79
2021/06/30 10:07:11;;;;;;;0.50;0.50;;;16.50;86.40;;;;;;5054901;28;20055;-79
2021/06/30 10:09:38;;;;;;;0.60;0.60;;;16.60;86.50;;;;;;5054081;28;20211;-77
2021/06/30 10:12:08;;;;;;;0.60;0.60;;;16.60;86.50;;;;;;5038012;28;20052;-78
2021/06/30 10:14:35;;;;;;;1.17;0.50;;;16.70;86.60;;;;;;5054222;28;20047;-79
2021/06/30 10:17:02;;;;;;;0.93;0.80;;;16.60;86.40;;;;;;5054657;28;20047;-79
2021/06/30 10:19:28;;;;;;;0.55;0.55;;;16.60;86.50;;;;;;5054138;28;20082;-79
2021/06/30 10:21:54;;;;;;;0.55;0.55;;;16.50;86.50;;;;;;5021372;28;20040;-79
2021/06/30 10:24:21;;;;;;;0.50;0.50;;;16.50;86.60;;;;;;5054285;28;20028;-79
2021/06/30 10:26:47;;;;;;;0.60;0.60;;;16.50;86.60;;;;;;5037525;28;20483;-80
2021/06/30 10:29:15;;;;;;;0.60;0.60;;;16.50;86.60;;;;;;5034937;28;20044;-79
2021/06/30 10:31:42;;;;;;;0.50;0.50;;;16.60;86.80;;;;;;5071636;28;20048;-80
2021/06/30 10:34:11;;;;;;;0.40;0.40;;;16.50;86.70;;;;;;5054130;28;20045;-78
2021/06/30 10:36:54;;;;;;;0.43;0.43;;;16.60;86.70;;;;;;5024664;28;20072;-80
2021/06/30 10:39:43;;;;;;;0.63;0.63;;;16.60;86.80;;;;;;5056329;28;20064;-80
2021/06/30 10:42:23;;;;;;;0.70;0.70;;;16.70;86.70;;;;;;5056595;28;20409;-79
2021/06/30 10:44:53;;;;;;;0.70;0.70;;;16.70;86.40;;;;;;5041802;28;20135;-79
2021/06/30 10:47:39;;;;;;;0.40;0.40;;;16.80;86.40;;;;;;5073970;28;20048;-80
2021/06/30 10:50:35;;;;;;;0.63;0.63;;;16.80;86.30;;;;;;5073545;28;20052;-79
2021/06/30 10:53:38;;;;;;;0.50;0.50;;;16.70;86.20;;;;;;5060178;28;20568;-80
2021/06/30 10:56:07;;;;;;;0.57;0.57;;;16.70;86.30;;;;;;5046123;28;20075;-79
2021/06/30 10:58:33;;;;;;;0.73;0.73;;;16.80;86.30;;;;;;5025069;28;20080;-79
2021/06/30 11:01:08;;;;;;;0.40;0.40;;;16.80;86.30;;;;;;5041512;28;20047;-78
2021/06/30 11:03:46;;;;;;;0.57;0.57;;;17.00;86.20;;;;;;5057252;28;20101;-78
2021/06/30 11:06:30;;;;;;;0.77;0.70;;;17.00;86.00;;;;;;5056363;28;20043;-79
2021/06/30 11:09:02;;;;;;;0.80;0.70;;;17.10;85.80;;;;;;5041441;28;20047;-79
2021/06/30 11:11:49;;;;;;;0.47;0.47;;;17.10;85.70;;;;;;5040430;28;20390;-79
2021/06/30 11:14:18;;;;;;;0.57;0.50;;;17.30;85.50;;;;;;5027139;28;20033;-80
2021/06/30 11:16:48;;;;;;;0.52;0.52;;;17.40;85.30;;;;;;5038623;28;20059;-79
2021/06/30 11:19:37;;;;;;;0.63;0.63;;;17.50;85.00;;;;;;5055244;28;20198;-79
2021/06/30 11:22:08;;;;;;;1.25;0.70;;;17.50;85.00;;;;;;5060246;28;20116;-79
2021/06/30 11:24:47;;;;;;;1.17;0.70;;;17.50;84.70;;;;;;5056876;28;20397;-82
2021/06/30 11:27:39;;;;;;;0.80;0.68;;;17.40;85.00;;;;;;5074853;28;20403;-81
2021/06/30 11:30:07;;;;;;;0.75;0.73;;;17.30;85.50;;;;;;5041867;28;20072;-79
2021/06/30 11:32:47;;;;;;;0.88;0.70;;;17.30;85.60;;;;;;5058588;28;20044;-79
2021/06/30 11:35:23;;;;;;;1.15;0.82;;;17.30;85.80;;;;;;5057357;28;20033;-82
2021/06/30 11:38:11;;;;;;;0.50;0.50;;;17.30;85.80;;;;;;5041816;28;20048;-82
2021/06/30 11:40:42;;;;;;;0.70;0.70;;;17.30;85.70;;;;;;5056967;28;20036;-81
2021/06/30 11:43:10;;;;;;;;;;;17.30;85.70;;;;;;5025765;28;20036;-81
2021/06/30 11:45:36;;;;;;;0.82;0.82;;;17.40;85.80;;;;;;5057748;28;19912;-80
2021/06/30 11:48:09;;;;;;;0.93;0.80;;;17.10;85.70;;;;;;5040481;28;20599;-81
2021/06/30 11:50:52;;;;;;;0.95;0.90;;;17.10;86.10;;;;;;5075748;28;20037;-79
2021/06/30 11:53:31;;;;;;;0.70;0.70;;;17.00;86.20;;;;;;5074496;28;20044;-82
2021/06/30 11:55:57;;;;;;;1.02;0.90;;;17.00;86.40;;;;;;5056451;28;20037;-82
2021/06/30 11:58:24;;;;;;;0.73;0.73;;;17.00;86.50;;;;;;5039503;28;20032;-83
2021/06/30 12:00:49;;;;;;;0.80;0.80;;;16.90;86.50;;;;;;5023770;28;20099;-82
2021/06/30 12:03:18;;;;;;;1.10;1.00;;;16.90;86.50;;;;;;5074238;28;20052;-84
2021/06/30 12:05:49;;;;;;;1.40;1.13;;;16.90;86.50;;;;;;5055204;28;20101;-85
2021/06/30 12:08:14;;;;;;;1.40;1.30;;;17.00;86.50;;;;;;5025546;28;20047;-81
2021/06/30 12:10:40;;;;;;;1.02;0.93;;;16.90;86.40;;;;;;5075411;28;20048;-82
2021/06/30 12:13:11;;;;;;;1.17;1.08;;;16.90;86.40;;;;;;5057389;28;20036;-81
2021/06/30 12:15:42;;;;;;;1.17;1.05;;;17.00;86.40;;;;;;5058768;28;20091;-82
2021/06/30 12:18:08;;;;;;;1.25;1.15;;;17.00;86.40;;;;;;5059557;28;20045;-82
2021/06/30 12:20:34;;;;;;;2.03;1.35;;;16.90;86.30;;;;;;5058198;28;20044;-80
2021/06/30 12:23:02;;;;;;;1.30;1.20;;;16.80;86.40;;;;;;5041030;28;20410;-80
2021/06/30 12:25:29;;;;;;;1.45;1.20;;;16.80;86.50;;;;;;5057172;28;20119;-80
2021/06/30 12:28:02;;;;;;;1.42;1.27;;;16.80;86.50;;;;;;5074271;28;20048;-79
2021/06/30 12:30:30;;;;;;;1.20;1.10;;;16.70;86.60;;;;;;5041648;28;20494;-83
2021/06/30 12:33:01;;;;;;;0.82;0.80;;;16.70;86.60;;;;;;5040272;28;20048;-80
2021/06/30 12:35:29;;;;;;;1.10;0.80;;;16.80;87.20;;;;;;5058996;28;20044;-79
2021/06/30 12:38:03;;;;;;;0.90;0.90;;;16.80;86.50;;;;;;5053822;28;20055;-82
2021/06/30 12:40:30;;;;;;;0.80;0.80;;;16.70;86.60;;;;;;5055525;28;20407;-80
2021/06/30 12:43:00;;;;;;;1.58;1.08;;;16.70;86.50;;;;;;5022866;28;20036;-80
2021/06/30 12:45:40;;;;;;;0.70;0.70;;;16.80;86.70;;;;;;5023355;28;20037;-80
2021/06/30 12:48:10;;;;;;;0.83;0.80;;;16.80;86.60;;;;;;5071986;28;20121;-80
2021/06/30 12:50:43;;;;;;;0.90;0.90;;;16.80;86.50;;;;;;5023349;28;20082;-80
2021/06/30 12:53:13;;;;;;;1.45;1.15;;;16.80;86.50;;;;;;5038753;28;20051;-80
2021/06/30 12:56:06;;;;;;;2.40;1.13;;;16.80;86.50;;;;;;5022525;28;20041;-81
2021/06/30 12:58:53;;;;;;;1.13;0.90;;;16.80;86.50;;;;;;5054545;28;20040;-81
2021/06/30 13:01:28;;;;;;;1.20;1.10;;;16.90;86.40;;;;;;5055335;28;20037;-80